This is the latest recevied weather packets stored in our database for station/object KC3LDA. If no packets are shown the sender has not sent any weather packets the latest 10 day(s).
| Time | Temp. | Humidity | Pressure | Rain* | Wind** | Luminosity | Snow |
|---|---|---|---|---|---|---|---|
| 1777693400 | 10.56° C | 87% | 1009.2 hPa | 0 mm | - | 0 W/m² | - |
| 1777693099 | 10.56° C | 87% | 1009.1 hPa | 0 mm | - | 0 W/m² | - |
| 1777692796 | 10.56° C | 87% | 1009 hPa | 0 mm | - | 0 W/m² | - |
| 1777692492 | 10.56° C | 86% | 1009 hPa | 0 mm | - | 0 W/m² | - |
| 1777692188 | 10.56° C | 86% | 1009.1 hPa | 0 mm | - | 0 W/m² | - |
| 1777691886 | 10.56° C | 85% | 1009.1 hPa | 0 mm | - | 0 W/m² | - |
| 1777691584 | 11.11° C | 85% | 1009.3 hPa | 0 mm | - | 0 W/m² | - |
| 1777691282 | 10.56° C | 86% | 1009.4 hPa | 0 mm | - | 0 W/m² | - |
| 1777690980 | 11.11° C | 87% | 1009.3 hPa | 0 mm | - | 0 W/m² | - |
| 1777690677 | 11.11° C | 87% | 1009.1 hPa | 0 mm | - | 0 W/m² | - |
| 1777690375 | 10.56° C | 85% | 1009.5 hPa | 0 mm | - | 0 W/m² | - |
| 1777690073 | 10.56° C | 86% | 1009.5 hPa | 0 mm | - | 0 W/m² | - |
| 1777689770 | 10.56° C | 87% | 1009.4 hPa | 0 mm | - | 0 W/m² | - |
| 1777689468 | 10.56° C | 87% | 1009.2 hPa | 0 mm | - | 0 W/m² | - |
| 1777689165 | 10.56° C | 87% | 1009.1 hPa | 0 mm | - | 0 W/m² | - |
| 1777688559 | 10.56° C | 87% | 1009.4 hPa | 0 mm | - | 0 W/m² | - |
| 1777674317 | 12.22° C | 80% | 1008.4 hPa | 0 mm | - | 166 W/m² | - |
| 1777673711 | 12.22° C | 78% | 1008.3 hPa | 0 mm | - | 194 W/m² | - |
| 1777673107 | 12.22° C | 78% | 1008.4 hPa | 0 mm | - | 230 W/m² | - |
| 1777669464 | 12.78° C | 69% | 1008.4 hPa | 0 mm | - | 425 W/m² | - |
| 1777667644 | 13.33° C | 64% | 1008.3 hPa | 0 mm | - | 535 W/m² | - |
| 1777666128 | 14.44° C | 60% | 1008.1 hPa | 0 mm | - | 609 W/m² | - |
| 1777665825 | 15° C | 60% | 1008.1 hPa | 0 mm | - | 623 W/m² | - |
| 1777664915 | 15° C | 56% | 1008.1 hPa | 0 mm | - | 661 W/m² | - |
| 1777664611 | 15° C | 59% | 1008.1 hPa | 0 mm | - | 675 W/m² | - |
* Rain latest hour (hover to see other rain measurements)
** Current wind speed in m/s (hover to see current wind gust speed)